createdAt,value
2018-06-27T00:01:20.237Z,1.47
2018-06-27T00:03:48.822Z,1.00
2018-06-27T00:06:17.506Z,1.00
2018-06-27T00:08:46.119Z,1.10
2018-06-27T00:11:14.770Z,1.43
2018-06-27T00:13:43.395Z,1.10
2018-06-27T00:16:12.034Z,1.23
2018-06-27T00:18:40.712Z,1.33
2018-06-27T00:21:09.681Z,1.20
2018-06-27T00:23:38.365Z,1.30
2018-06-27T00:26:07.125Z,1.17
2018-06-27T00:28:35.750Z,1.30
2018-06-27T00:31:04.378Z,1.13
2018-06-27T00:33:33.077Z,1.10
2018-06-27T00:36:01.815Z,1.10
2018-06-27T00:38:30.450Z,1.03
2018-06-27T00:40:59.167Z,1.10
2018-06-27T00:43:27.809Z,1.00
2018-06-27T00:45:56.516Z,1.00
2018-06-27T00:48:25.163Z,0.73
2018-06-27T00:50:53.877Z,0.70
2018-06-27T00:53:26.614Z,0.70
2018-06-27T00:55:55.292Z,0.83
2018-06-27T00:58:23.857Z,0.67
2018-06-27T01:00:52.534Z,0.80
2018-06-27T01:03:21.164Z,0.87
2018-06-27T01:05:49.823Z,1.00
2018-06-27T01:08:18.496Z,0.70
2018-06-27T01:10:47.109Z,0.57
2018-06-27T01:13:15.803Z,0.90
2018-06-27T01:15:44.460Z,0.50
2018-06-27T01:18:13.051Z,0.40
2018-06-27T01:20:41.824Z,0.60
2018-06-27T01:23:10.449Z,0.50
2018-06-27T01:25:39.074Z,0.60
2018-06-27T01:28:07.737Z,0.50
2018-06-27T01:30:36.288Z,0.70
2018-06-27T01:33:04.926Z,0.50
2018-06-27T01:35:33.693Z,0.70
2018-06-27T01:38:02.398Z,0.40
2018-06-27T01:40:31.067Z,0.40
2018-06-27T01:42:59.634Z,0.50
2018-06-27T01:45:28.230Z,0.60
2018-06-27T01:47:56.879Z,0.60
2018-06-27T01:50:25.568Z,0.60
2018-06-27T01:52:54.252Z,0.57
2018-06-27T01:55:22.861Z,0.40
2018-06-27T01:57:51.495Z,0.80
2018-06-27T02:00:20.178Z,0.50
2018-06-27T02:02:48.944Z,0.80
2018-06-27T02:05:17.642Z,0.77
2018-06-27T02:07:46.313Z,0.83
2018-06-27T02:10:14.937Z,0.80
2018-06-27T02:12:43.799Z,1.10
2018-06-27T02:15:12.556Z,0.70
2018-06-27T02:17:41.224Z,0.80
2018-06-27T02:20:09.856Z,0.70
2018-06-27T02:22:38.545Z,0.70
2018-06-27T02:25:07.138Z,0.97
2018-06-27T02:27:35.817Z,0.60
2018-06-27T02:30:04.727Z,0.60
2018-06-27T02:32:33.323Z,0.70
2018-06-27T02:35:01.965Z,1.10
2018-06-27T02:37:30.726Z,0.60
2018-06-27T02:39:59.412Z,0.57
2018-06-27T02:42:28.060Z,0.80
2018-06-27T02:44:56.709Z,0.60
2018-06-27T02:47:25.421Z,0.70
2018-06-27T02:49:54.174Z,0.60
2018-06-27T02:52:22.771Z,0.83
2018-06-27T02:54:51.367Z,0.57
2018-06-27T02:57:19.995Z,0.73
2018-06-27T02:59:48.757Z,0.50
2018-06-27T03:02:17.394Z,0.70
2018-06-27T03:04:46.026Z,0.80
2018-06-27T03:07:14.687Z,0.40
2018-06-27T03:09:43.391Z,0.40
2018-06-27T03:12:12.064Z,0.30
2018-06-27T03:14:40.760Z,0.40
2018-06-27T03:17:09.425Z,0.33
2018-06-27T03:19:38.076Z,0.70
2018-06-27T03:22:06.925Z,0.40
2018-06-27T03:24:35.575Z,0.50
2018-06-27T03:27:04.299Z,0.50
2018-06-27T03:29:32.949Z,0.30
2018-06-27T03:32:06.984Z,0.60
2018-06-27T03:34:35.616Z,0.20
2018-06-27T03:37:04.318Z,0.43
2018-06-27T03:39:32.907Z,0.37
2018-06-27T03:42:01.687Z,0.30
2018-06-27T03:44:30.241Z,0.47
2018-06-27T03:46:58.802Z,0.50
2018-06-27T03:49:27.455Z,0.30
2018-06-27T03:51:56.080Z,0.30
2018-06-27T03:54:24.784Z,0.80
2018-06-27T03:56:53.472Z,0.60
2018-06-27T03:59:22.212Z,0.40
2018-06-27T04:01:50.903Z,0.30
2018-06-27T04:04:19.653Z,0.37
2018-06-27T04:06:48.330Z,0.30
2018-06-27T04:09:16.936Z,0.40
2018-06-27T04:11:45.583Z,0.50
2018-06-27T04:14:14.288Z,0.30
2018-06-27T04:16:42.881Z,0.20
2018-06-27T04:19:11.511Z,0.60
2018-06-27T04:21:40.142Z,0.67
2018-06-27T04:24:08.766Z,0.43
2018-06-27T04:26:37.457Z,0.50
2018-06-27T04:29:06.131Z,0.40
2018-06-27T04:31:34.790Z,0.93
2018-06-27T04:34:03.462Z,0.30
2018-06-27T04:36:32.106Z,0.33
2018-06-27T04:39:00.686Z,0.57
2018-06-27T04:41:29.324Z,0.40
2018-06-27T04:43:57.984Z,0.57
2018-06-27T04:46:26.597Z,0.60
2018-06-27T04:48:55.379Z,0.40
2018-06-27T04:51:23.949Z,0.50
2018-06-27T04:53:52.614Z,0.90
2018-06-27T04:56:21.180Z,0.50
2018-06-27T04:58:49.838Z,0.57
2018-06-27T05:01:18.534Z,0.80
2018-06-27T05:03:47.238Z,1.17
2018-06-27T05:06:16.016Z,0.90
2018-06-27T05:08:44.590Z,0.67
2018-06-27T05:11:13.293Z,0.90
2018-06-27T05:13:41.867Z,0.80
2018-06-27T05:16:10.592Z,0.77
2018-06-27T05:18:39.349Z,0.60
2018-06-27T05:21:07.948Z,1.17
2018-06-27T05:23:36.593Z,0.90
2018-06-27T05:26:05.319Z,0.70
2018-06-27T05:28:33.976Z,0.77
2018-06-27T05:31:02.579Z,0.80
2018-06-27T05:33:31.260Z,1.00
2018-06-27T05:35:59.904Z,1.10
2018-06-27T05:38:28.704Z,0.70
2018-06-27T05:40:57.422Z,1.23
2018-06-27T05:43:26.311Z,0.90
2018-06-27T05:45:55.011Z,0.97
2018-06-27T05:48:23.630Z,1.10
2018-06-27T05:50:52.364Z,1.10
2018-06-27T05:53:21.051Z,1.10
2018-06-27T05:55:49.674Z,0.77
2018-06-27T05:58:18.514Z,1.07
2018-06-27T06:00:47.038Z,0.80
2018-06-27T06:03:15.729Z,1.03
2018-06-27T06:05:44.353Z,0.90
2018-06-27T06:08:12.999Z,1.10
2018-06-27T06:10:41.711Z,1.07
2018-06-27T06:13:10.384Z,1.10
2018-06-27T06:15:39.150Z,1.13
2018-06-27T06:18:07.831Z,1.03
2018-06-27T06:20:36.471Z,0.93
2018-06-27T06:23:05.085Z,0.93
2018-06-27T06:25:33.843Z,1.13
2018-06-27T06:28:02.569Z,1.10
2018-06-27T06:30:31.155Z,1.30
2018-06-27T06:32:59.821Z,0.80
2018-06-27T06:35:28.690Z,0.90
2018-06-27T06:37:57.430Z,1.20
2018-06-27T06:40:26.059Z,1.10
2018-06-27T06:42:54.665Z,1.17
2018-06-27T06:45:23.576Z,1.30
2018-06-27T06:47:52.275Z,1.30
2018-06-27T06:50:21.003Z,1.10
2018-06-27T06:52:49.704Z,1.30
2018-06-27T06:55:18.371Z,1.20
2018-06-27T06:57:47.107Z,1.17
2018-06-27T07:00:15.735Z,1.03
2018-06-27T07:02:44.435Z,1.10
2018-06-27T07:05:13.201Z,1.20
2018-06-27T07:07:41.956Z,1.23
2018-06-27T07:10:10.539Z,1.27
2018-06-27T07:12:39.199Z,1.13
2018-06-27T07:15:07.935Z,1.30
2018-06-27T07:17:36.663Z,1.20
2018-06-27T07:20:05.665Z,1.10
2018-06-27T07:22:34.281Z,1.37
2018-06-27T07:25:02.889Z,1.30
2018-06-27T07:27:31.609Z,1.00
2018-06-27T07:30:00.337Z,1.30
2018-06-27T07:32:29.214Z,1.13
2018-06-27T07:34:58.067Z,1.67
2018-06-27T07:37:26.856Z,1.13
2018-06-27T07:39:55.703Z,1.33
2018-06-27T07:42:24.392Z,1.27
2018-06-27T07:44:53.159Z,1.10
2018-06-27T07:47:21.880Z,1.10
2018-06-27T07:49:50.714Z,1.17
2018-06-27T07:52:19.281Z,1.00
2018-06-27T07:54:48.002Z,1.10
2018-06-27T07:57:16.659Z,1.13
2018-06-27T07:59:45.403Z,1.33
2018-06-27T08:02:14.123Z,1.60
2018-06-27T08:04:42.814Z,1.50
2018-06-27T08:07:11.446Z,1.60
2018-06-27T08:09:40.130Z,1.20
2018-06-27T08:12:08.840Z,1.20
2018-06-27T08:14:37.599Z,1.30
2018-06-27T08:17:06.220Z,1.30
2018-06-27T08:19:34.847Z,1.23
2018-06-27T08:22:03.697Z,1.23
2018-06-27T08:24:32.316Z,1.20
2018-06-27T08:27:00.967Z,1.57
2018-06-27T08:29:29.864Z,1.20
2018-06-27T08:31:58.647Z,1.40
2018-06-27T08:34:27.270Z,1.07
2018-06-27T08:36:55.965Z,1.20
2018-06-27T08:39:24.727Z,1.10
2018-06-27T08:41:53.438Z,1.20
2018-06-27T08:44:22.076Z,1.30
2018-06-27T08:46:50.945Z,1.10
2018-06-27T08:49:19.574Z,1.13
2018-06-27T08:51:48.296Z,1.47
2018-06-27T08:54:16.970Z,1.20
2018-06-27T08:56:45.602Z,1.10
2018-06-27T08:59:14.272Z,1.20
2018-06-27T09:01:43.001Z,1.50
2018-06-27T09:04:11.656Z,0.80
2018-06-27T09:06:40.360Z,1.50
2018-06-27T09:09:11.307Z,1.27
2018-06-27T09:11:39.965Z,1.53
2018-06-27T09:14:08.775Z,1.00
2018-06-27T09:16:37.313Z,1.30
2018-06-27T09:19:05.963Z,1.10
2018-06-27T09:21:34.568Z,1.50
2018-06-27T09:24:03.268Z,1.07
2018-06-27T09:26:31.878Z,1.00
2018-06-27T09:29:00.581Z,1.20
2018-06-27T09:31:29.399Z,1.00
2018-06-27T09:33:58.129Z,1.30
2018-06-27T09:36:26.792Z,1.07
2018-06-27T09:38:55.900Z,1.10
2018-06-27T09:41:24.508Z,1.30
2018-06-27T09:43:53.134Z,1.47
2018-06-27T09:46:21.770Z,1.10
2018-06-27T09:48:50.392Z,1.30
2018-06-27T09:51:19.088Z,1.10
2018-06-27T09:53:47.730Z,1.50
2018-06-27T09:56:16.464Z,1.23
2018-06-27T09:58:45.151Z,1.40
2018-06-27T10:01:13.965Z,1.07
2018-06-27T10:03:42.683Z,1.30
2018-06-27T10:06:11.379Z,1.20
2018-06-27T10:08:40.039Z,1.20
2018-06-27T10:11:08.667Z,1.00
2018-06-27T10:13:37.494Z,1.43
2018-06-27T10:16:06.367Z,0.80
2018-06-27T10:18:34.919Z,1.27
2018-06-27T10:21:03.604Z,1.20
2018-06-27T10:23:32.402Z,0.83
2018-06-27T10:26:00.966Z,1.20
2018-06-27T10:28:32.619Z,0.90
2018-06-27T10:31:01.241Z,1.37
2018-06-27T10:33:29.973Z,1.07
2018-06-27T10:35:58.608Z,1.03
2018-06-27T10:38:27.288Z,0.93
2018-06-27T10:40:56.132Z,1.00
2018-06-27T10:43:24.766Z,0.90
2018-06-27T10:45:53.444Z,1.10
2018-06-27T10:48:22.095Z,0.97
2018-06-27T10:50:50.777Z,1.27
2018-06-27T10:53:19.418Z,1.00
2018-06-27T10:55:48.098Z,1.13
2018-06-27T10:58:16.670Z,1.10
2018-06-27T11:00:45.256Z,1.03
2018-06-27T11:03:13.874Z,1.30
2018-06-27T11:05:42.598Z,1.73
2018-06-27T11:08:11.265Z,0.87
2018-06-27T11:10:39.917Z,0.83
2018-06-27T11:13:08.519Z,1.30
2018-06-27T11:15:37.184Z,0.90
2018-06-27T11:18:05.802Z,1.10
2018-06-27T11:20:34.515Z,1.27
2018-06-27T11:23:03.184Z,1.20
2018-06-27T11:25:32.173Z,1.10
2018-06-27T11:28:00.763Z,1.30
2018-06-27T11:30:29.373Z,1.30
2018-06-27T11:32:58.136Z,1.30
2018-06-27T11:35:26.748Z,1.10
2018-06-27T11:37:55.406Z,1.10
2018-06-27T11:40:24.000Z,1.13
2018-06-27T11:42:52.738Z,0.90
2018-06-27T11:45:22.222Z,1.40
2018-06-27T11:47:51.094Z,1.17
2018-06-27T11:50:19.787Z,1.00
2018-06-27T11:52:48.408Z,0.90
2018-06-27T11:55:17.080Z,1.40
2018-06-27T11:57:45.825Z,1.27
2018-06-27T12:00:14.824Z,0.90
2018-06-27T12:02:43.523Z,0.93
2018-06-27T12:05:12.261Z,1.23
2018-06-27T12:07:40.894Z,1.20
2018-06-27T12:10:09.743Z,1.17
2018-06-27T12:12:38.326Z,1.10
2018-06-27T12:15:07.082Z,1.00
2018-06-27T12:17:35.707Z,0.97
2018-06-27T12:20:04.452Z,1.57
2018-06-27T12:22:33.032Z,1.80
2018-06-27T12:25:01.637Z,1.40
2018-06-27T12:27:30.442Z,1.50
2018-06-27T12:29:59.239Z,1.40
2018-06-27T12:32:27.882Z,1.50
2018-06-27T12:34:56.541Z,1.23
2018-06-27T12:37:25.099Z,1.00
2018-06-27T12:39:53.681Z,1.23
2018-06-27T12:42:22.484Z,1.03
2018-06-27T12:44:51.246Z,1.10
2018-06-27T12:47:19.851Z,1.10
2018-06-27T12:49:48.814Z,0.90
2018-06-27T12:52:17.459Z,1.20
2018-06-27T12:54:46.161Z,1.30
2018-06-27T12:57:14.820Z,1.30
2018-06-27T12:59:43.504Z,1.30
2018-06-27T13:02:12.169Z,1.00
2018-06-27T13:04:40.861Z,1.33
2018-06-27T13:07:09.591Z,1.30
2018-06-27T13:09:38.275Z,1.50
2018-06-27T13:12:07.258Z,1.03
2018-06-27T13:14:35.920Z,1.37
2018-06-27T13:17:04.596Z,1.70
2018-06-27T13:19:33.231Z,1.20
2018-06-27T13:22:01.840Z,1.23
2018-06-27T13:24:30.574Z,0.90
2018-06-27T13:26:59.256Z,1.10
2018-06-27T13:29:28.234Z,1.00
2018-06-27T13:31:56.817Z,1.40
2018-06-27T13:34:25.568Z,1.40
2018-06-27T13:36:54.428Z,1.30
2018-06-27T13:39:23.000Z,1.20
2018-06-27T13:41:51.659Z,1.10
2018-06-27T13:44:20.281Z,1.27
2018-06-27T13:46:48.972Z,1.30
2018-06-27T13:49:17.723Z,1.40
2018-06-27T13:51:46.420Z,1.17
2018-06-27T13:54:15.027Z,1.20
2018-06-27T13:56:43.728Z,1.40
2018-06-27T13:59:12.599Z,1.27
2018-06-27T14:01:41.349Z,1.30
2018-06-27T14:04:10.161Z,1.13
2018-06-27T14:06:38.790Z,1.27
2018-06-27T14:09:08.921Z,1.03
2018-06-27T14:11:37.642Z,1.27
2018-06-27T14:14:06.468Z,1.00
2018-06-27T14:16:35.359Z,1.17
2018-06-27T14:19:04.040Z,1.57
2018-06-27T14:21:32.820Z,1.13
2018-06-27T14:24:01.503Z,1.10
2018-06-27T14:26:30.091Z,1.27
2018-06-27T14:28:58.847Z,1.20
2018-06-27T14:31:27.580Z,1.10
2018-06-27T14:33:56.170Z,1.30
2018-06-27T14:36:24.955Z,1.10
2018-06-27T14:38:53.593Z,1.30
2018-06-27T14:41:22.229Z,1.43
2018-06-27T14:43:50.923Z,1.17
2018-06-27T14:46:19.594Z,1.37
2018-06-27T14:48:48.273Z,1.30
2018-06-27T14:51:17.030Z,0.90
2018-06-27T14:53:45.710Z,0.80
2018-06-27T14:56:14.284Z,1.10
2018-06-27T14:58:42.873Z,0.93
2018-06-27T15:01:11.689Z,1.30
2018-06-27T15:03:40.278Z,1.17
2018-06-27T15:06:09.031Z,1.20
2018-06-27T15:08:37.760Z,1.27
2018-06-27T15:11:06.463Z,0.80
2018-06-27T15:13:35.244Z,1.10
2018-06-27T15:16:03.999Z,1.00
2018-06-27T15:18:32.715Z,1.13
2018-06-27T15:21:01.351Z,1.50
2018-06-27T15:23:30.054Z,1.00
2018-06-27T15:25:58.584Z,1.43
2018-06-27T15:28:27.245Z,1.30
2018-06-27T15:30:55.884Z,0.90
2018-06-27T15:33:24.575Z,1.20
2018-06-27T15:35:53.165Z,0.97
2018-06-27T15:38:21.881Z,1.40
2018-06-27T15:40:50.645Z,1.53
2018-06-27T15:43:19.466Z,1.13
2018-06-27T15:48:22.843Z,0.90
2018-06-27T15:50:51.580Z,0.90
2018-06-27T15:53:20.499Z,1.20
2018-06-27T15:55:49.251Z,0.80
2018-06-27T15:58:17.968Z,1.30
2018-06-27T16:00:46.860Z,1.37
2018-06-27T16:03:15.558Z,1.10
2018-06-27T16:05:44.264Z,1.17
2018-06-27T16:08:13.110Z,1.10
2018-06-27T16:10:41.744Z,1.00
2018-06-27T16:13:10.526Z,1.17
2018-06-27T16:15:39.165Z,1.10
2018-06-27T16:18:07.840Z,1.43
2018-06-27T16:20:36.667Z,1.47
2018-06-27T16:23:05.397Z,1.60
2018-06-27T16:25:34.142Z,1.10
2018-06-27T16:28:02.804Z,1.07
2018-06-27T16:30:31.484Z,1.20
2018-06-27T16:33:00.183Z,1.00
2018-06-27T16:35:28.894Z,1.20
2018-06-27T16:37:57.459Z,1.07
2018-06-27T16:40:26.216Z,0.70
2018-06-27T16:42:54.965Z,1.00
2018-06-27T16:45:23.581Z,0.67
2018-06-27T16:47:52.301Z,0.87
2018-06-27T16:50:20.896Z,1.10
2018-06-27T16:52:49.579Z,1.20
2018-06-27T16:55:18.242Z,1.00
2018-06-27T16:57:46.921Z,1.10
2018-06-27T17:00:15.887Z,0.70
2018-06-27T17:02:44.547Z,0.83
2018-06-27T17:05:13.181Z,1.00
2018-06-27T17:07:41.830Z,0.90
2018-06-27T17:10:11.017Z,1.00
2018-06-27T17:12:39.705Z,1.07
2018-06-27T17:15:08.439Z,1.00
2018-06-27T17:18:40.004Z,0.80
2018-06-27T17:21:09.039Z,0.70
2018-06-27T17:23:37.881Z,0.87
2018-06-27T17:26:06.504Z,0.80
2018-06-27T17:28:35.289Z,1.10
2018-06-27T17:31:04.023Z,1.13
2018-06-27T17:33:32.668Z,0.60
2018-06-27T17:36:01.477Z,0.90
2018-06-27T17:38:31.429Z,1.00
2018-06-27T17:41:00.332Z,1.30
2018-06-27T17:43:29.066Z,0.80
2018-06-27T17:45:57.705Z,0.83
2018-06-27T17:48:26.420Z,0.80
2018-06-27T17:50:55.644Z,1.00
2018-06-27T17:53:24.386Z,1.07
2018-06-27T17:55:53.436Z,0.80
2018-06-27T17:58:22.430Z,1.10
2018-06-27T18:00:51.215Z,1.27
2018-06-27T18:03:20.062Z,1.20
2018-06-27T18:05:48.738Z,1.23
2018-06-27T18:08:17.532Z,1.20
2018-06-27T18:10:46.390Z,1.13
2018-06-27T18:13:15.695Z,0.90
2018-06-27T18:15:44.854Z,0.90
2018-06-27T18:18:13.896Z,0.90
2018-06-27T18:20:42.777Z,0.90
2018-06-27T18:23:11.700Z,1.20
2018-06-27T18:25:40.434Z,1.00
2018-06-27T18:28:09.060Z,1.00
2018-06-27T18:30:38.137Z,1.00
2018-06-27T18:33:07.642Z,1.17
2018-06-27T18:35:36.597Z,1.30
2018-06-27T18:38:05.595Z,1.40
2018-06-27T18:40:34.354Z,1.27
2018-06-27T18:43:03.125Z,1.10
2018-06-27T18:45:31.774Z,1.30
2018-06-27T18:48:00.439Z,1.10
2018-06-27T18:50:29.791Z,1.30
2018-06-27T18:52:59.094Z,1.10
2018-06-27T18:55:28.661Z,0.93
2018-06-27T18:57:57.572Z,0.93
2018-06-27T19:00:26.395Z,0.83
2018-06-27T19:02:55.201Z,1.20
2018-06-27T19:05:24.293Z,1.40
2018-06-27T19:07:52.887Z,1.53
2018-06-27T19:10:21.508Z,1.07
2018-06-27T19:12:50.222Z,1.10
2018-06-27T19:15:19.412Z,1.23
2018-06-27T19:17:48.806Z,1.20
2018-06-27T19:20:17.449Z,1.00
2018-06-27T19:22:46.178Z,1.23
2018-06-27T19:25:15.023Z,1.70
2018-06-27T19:27:43.855Z,1.30
2018-06-27T19:30:13.903Z,1.47
2018-06-27T19:32:43.711Z,1.10
2018-06-27T19:35:12.911Z,1.30
2018-06-27T19:37:41.856Z,1.03
2018-06-27T19:40:10.758Z,1.23
2018-06-27T19:42:39.481Z,1.10
2018-06-27T19:45:08.226Z,1.10
2018-06-27T19:47:36.848Z,1.33
2018-06-27T19:50:05.800Z,1.17
2018-06-27T19:52:34.970Z,1.40
2018-06-27T19:55:04.117Z,1.53
2018-06-27T19:57:32.940Z,1.67
2018-06-27T20:00:01.774Z,2.30
2018-06-27T20:02:30.569Z,1.80
2018-06-27T20:04:59.199Z,1.70
2018-06-27T20:07:27.970Z,1.50
2018-06-27T20:09:56.956Z,1.47
2018-06-27T20:12:25.824Z,1.37
2018-06-27T20:14:54.645Z,1.50
2018-06-27T20:17:23.864Z,1.73
2018-06-27T20:19:52.679Z,1.63
2018-06-27T20:22:21.777Z,1.50
2018-06-27T20:24:50.567Z,1.70
2018-06-27T20:27:19.264Z,1.60
2018-06-27T20:29:48.015Z,1.23
2018-06-27T20:32:16.852Z,1.00
2018-06-27T20:34:46.531Z,1.67
2018-06-27T20:37:15.998Z,1.30
2018-06-27T20:39:45.304Z,1.30
2018-06-27T20:42:14.516Z,1.10
2018-06-27T20:44:43.371Z,1.30
2018-06-27T20:47:12.014Z,1.67
2018-06-27T20:49:40.993Z,1.10
2018-06-27T20:52:09.852Z,1.20
2018-06-27T20:54:38.634Z,1.50
2018-06-27T20:57:07.734Z,1.27
2018-06-27T20:59:36.475Z,1.40
2018-06-27T21:02:05.222Z,1.50
2018-06-27T21:04:33.843Z,1.30
2018-06-27T21:07:03.045Z,1.53
2018-06-27T21:09:31.656Z,1.27
2018-06-27T21:12:00.672Z,1.57
2018-06-27T21:14:29.277Z,1.57
2018-06-27T21:16:58.101Z,1.20
2018-06-27T21:19:27.037Z,1.40
2018-06-27T21:21:57.054Z,1.50
2018-06-27T21:24:25.821Z,1.20
2018-06-27T21:26:54.527Z,1.70
2018-06-27T21:29:24.064Z,1.30
2018-06-27T21:31:53.064Z,1.43
2018-06-27T21:34:21.935Z,1.70
2018-06-27T21:36:51.006Z,1.80
2018-06-27T21:39:19.750Z,1.83
2018-06-27T21:41:49.148Z,1.60
2018-06-27T21:44:17.970Z,1.37
2018-06-27T21:46:46.647Z,1.20
2018-06-27T21:49:15.309Z,1.37
2018-06-27T21:51:44.017Z,1.40
2018-06-27T21:54:12.734Z,1.50
2018-06-27T21:56:41.396Z,1.83
2018-06-27T21:59:10.057Z,1.50
2018-06-27T22:01:38.624Z,1.90
2018-06-27T22:04:07.325Z,1.50
2018-06-27T22:06:35.989Z,1.70
2018-06-27T22:09:06.401Z,1.60
2018-06-27T22:11:35.183Z,1.80
2018-06-27T22:14:04.035Z,1.80
2018-06-27T22:16:32.738Z,1.93
2018-06-27T22:19:01.298Z,1.60
2018-06-27T22:21:29.927Z,2.10
2018-06-27T22:23:58.702Z,1.70
2018-06-27T22:26:27.364Z,1.80
2018-06-27T22:28:56.112Z,1.27
2018-06-27T22:31:24.755Z,1.67
2018-06-27T22:33:53.416Z,1.30
2018-06-27T22:36:22.081Z,1.70
2018-06-27T22:38:50.744Z,1.60
2018-06-27T22:41:19.437Z,1.80
2018-06-27T22:43:48.015Z,1.40
2018-06-27T22:46:16.805Z,1.50
2018-06-27T22:48:45.457Z,2.10
2018-06-27T22:51:14.154Z,1.80
2018-06-27T22:53:42.777Z,1.63
2018-06-27T22:56:11.353Z,1.40
2018-06-27T22:58:40.025Z,1.80
2018-06-27T23:01:08.732Z,1.50
2018-06-27T23:03:37.420Z,1.50
2018-06-27T23:06:06.079Z,1.40
2018-06-27T23:08:34.768Z,2.03
2018-06-27T23:11:03.401Z,1.80
2018-06-27T23:13:32.020Z,1.13
2018-06-27T23:16:00.708Z,1.60
2018-06-27T23:18:29.462Z,1.20
2018-06-27T23:20:58.097Z,1.23
2018-06-27T23:23:26.690Z,1.00
2018-06-27T23:25:55.354Z,1.60
2018-06-27T23:28:23.919Z,1.23
2018-06-27T23:30:52.568Z,0.93
2018-06-27T23:33:21.131Z,1.87
2018-06-27T23:35:49.761Z,1.27
2018-06-27T23:38:18.822Z,1.23
2018-06-27T23:40:47.406Z,1.10
2018-06-27T23:43:16.136Z,1.37
2018-06-27T23:45:44.797Z,1.20
2018-06-27T23:48:13.447Z,0.93
2018-06-27T23:50:42.020Z,0.93
2018-06-27T23:53:10.716Z,1.50
2018-06-27T23:55:39.494Z,1.00
2018-06-27T23:58:08.216Z,1.30
